This is the latest recevied weather packets stored in our database for station/object E22ZMG-2. If no packets are shown the sender has not sent any weather packets the latest 10 day(s).
| Time | Temp. | Humidity | Pressure | Rain* | Wind** | Luminosity | Snow |
|---|---|---|---|---|---|---|---|
| 1777886581 | 35° C | 40% | 924 hPa | - | - | 0 W/m² | - |
| 1777885957 | 34.44° C | 40% | 924 hPa | - | - | 0 W/m² | - |
| 1777885333 | 33.89° C | 40% | 924 hPa | - | - | 0 W/m² | - |
| 1777884709 | 33.89° C | 41% | 924 hPa | - | - | 0 W/m² | - |
| 1777884084 | 32.78° C | 44% | 925 hPa | - | - | 0 W/m² | - |
| 1777848462 | 26.67° C | 61% | 927 hPa | - | - | 0 W/m² | - |
| 1777847838 | 26.67° C | 60% | 927 hPa | - | - | 0 W/m² | - |
| 1777847213 | 26.67° C | 61% | 927 hPa | - | - | 0 W/m² | - |
| 1777846589 | 26.67° C | 61% | 927 hPa | - | - | 0 W/m² | - |
| 1777846289 | 26.67° C | 61% | 927 hPa | - | - | 0 W/m² | - |
| 1777845665 | 26.11° C | 61% | 927 hPa | - | - | 0 W/m² | - |
| 1777845041 | 26.67° C | 59% | 926 hPa | - | - | 0 W/m² | - |
| 1777844417 | 26.67° C | 58% | 926 hPa | - | - | 0 W/m² | - |
| 1777843617 | 27.22° C | 58% | 926 hPa | - | - | 0 W/m² | - |
| 1777842993 | 27.22° C | 57% | 926 hPa | - | - | 0 W/m² | - |
| 1777842370 | 27.22° C | 57% | 926 hPa | - | - | 0 W/m² | - |
| 1777841746 | 27.22° C | 56% | 926 hPa | - | - | 0 W/m² | - |
| 1777841122 | 27.22° C | 56% | 926 hPa | - | - | 0 W/m² | - |
| 1777840498 | 27.78° C | 56% | 926 hPa | - | - | 0 W/m² | - |
| 1777839873 | 27.78° C | 55% | 926 hPa | - | - | 0 W/m² | - |
| 1777839249 | 27.22° C | 56% | 926 hPa | - | - | 0 W/m² | - |
| 1777838625 | 27.78° C | 55% | 926 hPa | - | - | 0 W/m² | - |
| 1777838001 | 27.78° C | 54% | 926 hPa | - | - | 0 W/m² | - |
| 1777837377 | 27.78° C | 55% | 926 hPa | - | - | 0 W/m² | - |
| 1777836753 | 27.78° C | 54% | 926 hPa | - | - | 0 W/m² | - |
* Rain since midnight (hover to see other rain measurements)
** Current wind speed in m/s (hover to see current wind gust speed)